Hardinsburg, Kentucky
Current Conditions -  °F | °C
As of 4:58 AM on Thursday 23 Oct 2014 (Local Time) from KFTK Reporting Station
Clear Clear  
Wind Chill: 38°   Ceiling: Unl
Heat Index: 38°   Visibility: 10mi
Dew Point: 37°   Wind: 2mph
Humidity: 95%   Direction: 30°NNE
Pressure: 30.24"   Gusts: NA
Location:  37.78°N, 86.46°W
Report Text: KFTK 230958Z AUTO 03002KT 10SM CLR 03/03 A3024 RMK AO2 SLP245 T00340026
Loading
Personal Weather Stations






























Interactive Weather Map
Tropical Storm Tracking
New forecast layout! Learn more

10-Day Weather Forecast

Advertisements
Track Severe Weather on mobile